Time;durP1;ratioP1;P1;durP2;ratioP2;P2;SDS_P1;SDS_P2;PMS_P1;PMS_P2;Temp;Humidity;BMP_temperature;BMP_pressure;BME280_temperature;BME280_humidity;BME280_pressure;Samples;Min_cycle;Max_cycle;Signal;HPM_P1;HPM_P2
2024/04/14 00:00:53;;;;;;;7.33;7.13;;;23.30;76.80;;;;;;5446152;26;20532;-65
2024/04/14 00:03:21;;;;;;;7.13;7.03;;;23.30;76.70;;;;;;5416590;26;20512;-65
2024/04/14 00:05:50;;;;;;;8.20;8.00;;;23.30;76.70;;;;;;5417002;26;20501;-66
2024/04/14 00:08:17;;;;;;;7.33;7.13;;;23.30;76.70;;;;;;5416976;26;20453;-66
2024/04/14 00:10:45;;;;;;;6.90;6.80;;;23.30;76.80;;;;;;5416924;26;20503;-66
2024/04/14 00:13:11;;;;;;;7.03;6.93;;;23.30;76.80;;;;;;5424099;26;20525;-66
2024/04/14 00:15:39;;;;;;;7.77;7.57;;;23.30;76.80;;;;;;5438590;26;20467;-66
2024/04/14 00:18:06;;;;;;;7.90;7.70;;;23.30;76.70;;;;;;5452761;26;20458;-66
2024/04/14 00:20:37;;;;;;;6.77;6.67;;;23.30;76.70;;;;;;5451751;26;20537;-65
2024/04/14 00:23:03;;;;;;;8.00;7.80;;;23.30;77.50;;;;;;5452123;26;20568;-66
2024/04/14 00:25:31;;;;;;;7.33;7.23;;;23.30;76.70;;;;;;5439325;26;20816;-66
2024/04/14 00:27:57;;;;;;;7.70;7.50;;;23.30;76.70;;;;;;5417017;26;20219;-65
2024/04/14 00:30:25;;;;;;;7.43;7.33;;;23.30;76.70;;;;;;5416757;26;20453;-65
2024/04/14 00:32:51;;;;;;;8.50;7.90;;;23.30;76.70;;;;;;5415841;26;20227;-65
2024/04/14 00:35:21;;;;;;;6.60;6.50;;;23.20;76.50;;;;;;5451306;26;20589;-66
2024/04/14 00:37:49;;;;;;;7.27;7.07;;;23.30;76.60;;;;;;5452442;26;20451;-65
2024/04/14 00:40:19;;;;;;;7.53;7.37;;;23.30;76.60;;;;;;5452579;26;20846;-66
2024/04/14 00:42:45;;;;;;;7.53;7.33;;;23.30;76.60;;;;;;5451860;26;20854;-67
2024/04/14 00:45:13;;;;;;;7.07;6.87;;;23.20;76.40;;;;;;5419428;26;21122;-66
2024/04/14 00:47:39;;;;;;;7.50;7.30;;;23.20;76.40;;;;;;5416411;26;20461;-66
2024/04/14 00:50:10;;;;;;;8.03;7.83;;;23.30;76.40;;;;;;5416473;26;20555;-65
2024/04/14 00:52:36;;;;;;;7.53;7.33;;;23.20;76.40;;;;;;5415651;26;20613;-66
2024/04/14 00:55:08;;;;;;;7.73;7.53;;;23.20;76.30;;;;;;5418684;26;20971;-66
2024/04/14 00:57:34;;;;;;;6.50;6.40;;;23.20;76.30;;;;;;5419814;26;20461;-65
2024/04/14 01:00:05;;;;;;;6.97;6.77;;;23.20;76.40;;;;;;5416403;26;20556;-66
2024/04/14 01:02:31;;;;;;;7.43;7.23;;;23.20;76.20;;;;;;5415560;26;20574;-66
2024/04/14 01:04:59;;;;;;;7.67;7.47;;;23.20;76.30;;;;;;5416247;26;20465;-66
2024/04/14 01:07:25;;;;;;;7.70;7.50;;;23.20;76.10;;;;;;5425625;26;20230;-66
2024/04/14 01:09:55;;;;;;;7.67;7.47;;;23.20;76.10;;;;;;5452021;26;20894;-65
2024/04/14 01:12:23;;;;;;;6.90;6.80;;;23.20;76.20;;;;;;5451425;26;20463;-66
2024/04/14 01:14:52;;;;;;;7.17;6.97;;;23.20;76.00;;;;;;5451935;26;20467;-66
2024/04/14 01:17:18;;;;;;;7.30;7.10;;;23.20;76.00;;;;;;5451898;26;20501;-66
2024/04/14 01:19:46;;;;;;;7.07;6.97;;;23.20;76.00;;;;;;5450987;26;20471;-65
2024/04/14 01:22:12;;;;;;;7.43;7.23;;;23.20;76.00;;;;;;5451503;26;20226;-66
2024/04/14 01:24:41;;;;;;;8.40;8.20;;;23.20;76.00;;;;;;5451788;26;20569;-66
2024/04/14 01:27:09;;;;;;;6.70;6.60;;;23.20;76.00;;;;;;5451904;26;20447;-66
2024/04/14 01:29:37;;;;;;;7.70;7.50;;;23.20;76.00;;;;;;5451815;26;20455;-66
2024/04/14 01:32:04;;;;;;;7.77;7.57;;;23.20;75.90;;;;;;5438777;26;20577;-66
2024/04/14 01:34:32;;;;;;;7.50;7.30;;;23.20;75.90;;;;;;5415882;26;20461;-65
2024/04/14 01:36:58;;;;;;;6.90;6.80;;;23.20;75.90;;;;;;5415783;26;20448;-66
2024/04/14 01:39:26;;;;;;;6.90;6.80;;;23.20;75.90;;;;;;5415831;26;20987;-66
2024/04/14 01:41:52;;;;;;;7.00;6.80;;;23.20;75.90;;;;;;5417076;26;21006;-67
2024/04/14 01:44:23;;;;;;;7.20;7.10;;;23.20;75.80;;;;;;5415790;26;20516;-66
2024/04/14 01:46:49;;;;;;;7.10;6.90;;;23.10;75.70;;;;;;5415737;26;20341;-66
2024/04/14 01:49:18;;;;;;;7.33;7.17;;;23.10;75.70;;;;;;5415657;26;20983;-67
2024/04/14 01:51:43;;;;;;;7.20;7.00;;;23.10;75.70;;;;;;5445991;26;20226;-67
2024/04/14 01:54:12;;;;;;;6.60;6.50;;;23.10;75.70;;;;;;5451314;26;20515;-66
2024/04/14 01:56:38;;;;;;;7.30;7.10;;;23.10;75.70;;;;;;5451374;26;20291;-66
2024/04/14 01:59:07;;;;;;;7.50;7.30;;;23.10;75.60;;;;;;5451264;26;20500;-66
2024/04/14 02:01:36;;;;;;;6.83;6.73;;;23.10;75.50;;;;;;5450699;26;20522;-66
2024/04/14 02:04:05;;;;;;;6.70;6.60;;;23.10;75.60;;;;;;5417457;26;20465;-66
2024/04/14 02:06:31;;;;;;;7.60;7.40;;;23.10;75.50;;;;;;5436149;26;21065;-66
2024/04/14 02:08:59;;;;;;;7.50;7.30;;;23.10;75.50;;;;;;5451166;26;20448;-66
2024/04/14 02:11:25;;;;;;;8.20;8.00;;;23.10;76.20;;;;;;5451060;26;20218;-66
2024/04/14 02:13:54;;;;;;;7.80;7.60;;;23.10;75.40;;;;;;5448112;26;20545;-66
2024/04/14 02:16:20;;;;;;;7.63;7.43;;;23.10;75.40;;;;;;5415031;26;20215;-66
2024/04/14 02:18:52;;;;;;;7.17;7.07;;;23.10;75.30;;;;;;5415041;26;20445;-66
2024/04/14 02:21:17;;;;;;;6.93;6.83;;;23.10;75.30;;;;;;5415171;26;20491;-66
2024/04/14 02:23:46;;;;;;;7.47;7.27;;;23.10;75.30;;;;;;5414296;26;20472;-66
2024/04/14 02:26:12;;;;;;;7.30;7.10;;;23.10;75.20;;;;;;5427120;26;20230;-66
2024/04/14 02:28:41;;;;;;;7.90;7.77;;;23.00;75.10;;;;;;5447694;26;21040;-66
2024/04/14 02:31:07;;;;;;;6.67;6.57;;;23.00;75.00;;;;;;5414840;26;20983;-66
2024/04/14 02:33:36;;;;;;;6.80;6.63;;;23.00;75.00;;;;;;5414110;26;20469;-66
2024/04/14 02:36:05;;;;;;;8.03;7.83;;;23.00;75.00;;;;;;5414842;26;20453;-66
2024/04/14 02:38:33;;;;;;;7.30;7.20;;;23.00;74.90;;;;;;5435202;26;20525;-66
2024/04/14 02:41:00;;;;;;;7.30;7.10;;;23.00;74.90;;;;;;5450759;26;20455;-66
2024/04/14 02:43:30;;;;;;;6.60;6.50;;;23.00;74.90;;;;;;5450056;26;20552;-66
2024/04/14 02:45:56;;;;;;;6.67;6.37;;;23.10;75.00;;;;;;5447395;26;20457;-66
2024/04/14 02:48:25;;;;;;;6.40;6.30;;;23.00;74.90;;;;;;5418221;26;20510;-66
2024/04/14 02:50:51;;;;;;;6.90;6.80;;;23.00;74.80;;;;;;5418130;26;21401;-66
2024/04/14 02:53:25;;;;;;;7.80;7.63;;;23.00;74.80;;;;;;5417433;26;20891;-66
2024/04/14 02:55:51;;;;;;;7.20;7.00;;;23.00;74.80;;;;;;5423364;26;20476;-66
2024/04/14 02:58:19;;;;;;;7.63;7.43;;;23.00;74.70;;;;;;5454118;26;20498;-66
2024/04/14 03:00:46;;;;;;;7.93;7.73;;;23.00;74.80;;;;;;5454019;26;20213;-66
2024/04/14 03:03:14;;;;;;;7.00;6.90;;;23.00;74.70;;;;;;5453378;26;20575;-66
2024/04/14 03:05:41;;;;;;;7.50;7.30;;;23.00;74.70;;;;;;5454034;26;20573;-66
2024/04/14 03:08:09;;;;;;;7.63;7.43;;;23.00;74.60;;;;;;5451167;26;20471;-66
2024/04/14 03:10:37;;;;;;;7.70;7.50;;;23.00;74.60;;;;;;5454023;26;20452;-66
2024/04/14 03:13:06;;;;;;;7.10;6.93;;;23.00;74.60;;;;;;5453200;26;20475;-65
2024/04/14 03:15:36;;;;;;;7.20;7.00;;;23.00;74.60;;;;;;5453766;26;20451;-66
2024/04/14 03:18:04;;;;;;;8.07;7.87;;;23.00;74.50;;;;;;5453957;26;20459;-68
2024/04/14 03:20:30;;;;;;;7.80;7.60;;;23.00;74.50;;;;;;5437678;26;20468;-67
2024/04/14 03:22:58;;;;;;;7.30;7.10;;;22.90;74.40;;;;;;5416959;26;20461;-67
2024/04/14 03:25:25;;;;;;;6.97;6.87;;;22.90;74.30;;;;;;5418174;26;20215;-67
2024/04/14 03:27:57;;;;;;;7.10;6.97;;;22.90;74.30;;;;;;5417628;26;20571;-67
2024/04/14 03:30:25;;;;;;;7.50;7.10;;;22.90;74.30;;;;;;5417763;26;20458;-67
2024/04/14 03:32:54;;;;;;;6.63;6.53;;;22.90;74.30;;;;;;5433991;26;20467;-67
2024/04/14 03:35:20;;;;;;;7.07;6.87;;;22.90;74.30;;;;;;5428206;26;20464;-67
2024/04/14 03:37:49;;;;;;;7.40;7.30;;;22.90;74.30;;;;;;5417483;26;20456;-67
2024/04/14 03:40:18;;;;;;;7.20;7.00;;;22.90;74.30;;;;;;5417793;26;20454;-68
2024/04/14 03:42:46;;;;;;;7.13;6.93;;;22.90;74.30;;;;;;5416855;26;21051;-68
2024/04/14 03:45:19;;;;;;;7.10;7.00;;;22.90;74.20;;;;;;5437818;26;20554;-67
2024/04/14 03:47:47;;;;;;;7.43;7.30;;;22.90;74.20;;;;;;5452589;26;20459;-68
2024/04/14 03:50:15;;;;;;;7.23;7.07;;;22.90;74.20;;;;;;5453367;26;20455;-68
2024/04/14 03:52:41;;;;;;;7.30;7.10;;;22.90;74.20;;;;;;5452615;26;20542;-68
2024/04/14 03:55:09;;;;;;;7.23;7.13;;;22.90;74.20;;;;;;5452241;26;20550;-68
2024/04/14 03:57:35;;;;;;;7.57;7.27;;;22.90;74.20;;;;;;5430867;26;20227;-68
2024/04/14 04:00:04;;;;;;;7.83;7.63;;;22.90;74.20;;;;;;5417394;26;20541;-68
2024/04/14 04:02:33;;;;;;;8.20;8.00;;;22.90;74.10;;;;;;5416566;26;20230;-67
2024/04/14 04:05:01;;;;;;;8.17;7.97;;;22.80;73.90;;;;;;5417412;26;20457;-68
2024/04/14 04:07:28;;;;;;;8.27;8.07;;;22.80;73.90;;;;;;5416958;26;20461;-68
2024/04/14 04:09:56;;;;;;;7.97;7.77;;;22.80;73.90;;;;;;5446905;26;20553;-68
2024/04/14 04:12:22;;;;;;;8.07;7.87;;;22.80;73.90;;;;;;5452391;26;20230;-68
2024/04/14 04:14:53;;;;;;;8.60;8.40;;;22.80;73.80;;;;;;5452916;26;20981;-68
2024/04/14 04:17:20;;;;;;;6.93;6.83;;;22.80;73.90;;;;;;5452955;26;20755;-68
2024/04/14 04:19:51;;;;;;;8.30;8.10;;;22.80;73.90;;;;;;5453194;26;20507;-67
2024/04/14 04:22:17;;;;;;;7.90;7.70;;;22.80;73.80;;;;;;5419418;26;20540;-67
2024/04/14 04:24:46;;;;;;;7.00;6.90;;;22.80;73.80;;;;;;5416770;26;20952;-68
2024/04/14 04:27:11;;;;;;;7.23;7.13;;;22.80;73.70;;;;;;5416771;26;20219;-68
2024/04/14 04:29:40;;;;;;;8.40;8.20;;;22.80;73.80;;;;;;5416834;26;20506;-68
2024/04/14 04:32:06;;;;;;;7.97;7.77;;;22.80;73.70;;;;;;5417106;26;20231;-67
2024/04/14 04:34:34;;;;;;;7.80;7.70;;;22.80;73.70;;;;;;5453025;26;20546;-66
2024/04/14 04:37:03;;;;;;;7.63;7.43;;;22.80;73.70;;;;;;5452456;26;20998;-66
2024/04/14 04:39:32;;;;;;;8.03;7.83;;;22.80;73.70;;;;;;5452726;26;21018;-66
2024/04/14 04:41:58;;;;;;;7.80;7.70;;;22.80;73.70;;;;;;5451811;26;20448;-65
2024/04/14 04:44:26;;;;;;;7.10;7.00;;;22.80;73.70;;;;;;5442709;26;20473;-66
2024/04/14 04:46:52;;;;;;;7.93;7.73;;;22.70;73.50;;;;;;5416576;26;20219;-66
2024/04/14 04:49:20;;;;;;;7.00;6.90;;;22.70;73.50;;;;;;5416430;26;21007;-66
2024/04/14 04:51:46;;;;;;;7.60;7.40;;;22.70;73.50;;;;;;5415705;26;20569;-65
2024/04/14 04:54:17;;;;;;;8.33;8.13;;;22.70;73.50;;;;;;5416368;26;20461;-65
2024/04/14 04:56:43;;;;;;;7.67;7.57;;;22.70;73.50;;;;;;5427866;26;20230;-66
2024/04/14 04:59:11;;;;;;;7.97;7.77;;;22.70;73.50;;;;;;5452278;26;20511;-66
2024/04/14 05:01:37;;;;;;;8.13;7.93;;;22.70;73.50;;;;;;5451626;26;20252;-65
2024/04/14 05:04:06;;;;;;;8.60;8.40;;;22.70;73.50;;;;;;5451992;26;20463;-66
2024/04/14 05:06:32;;;;;;;8.60;8.40;;;22.70;73.50;;;;;;5437069;26;20228;-65
2024/04/14 05:09:00;;;;;;;8.20;8.00;;;22.70;73.40;;;;;;5416024;26;20503;-66
2024/04/14 05:11:29;;;;;;;8.40;8.20;;;22.70;73.40;;;;;;5416050;26;20786;-66
2024/04/14 05:13:57;;;;;;;7.73;7.53;;;22.70;73.40;;;;;;5415960;26;20808;-66
2024/04/14 05:16:25;;;;;;;7.80;7.60;;;22.70;73.40;;;;;;5416079;26;20453;-66
2024/04/14 05:18:53;;;;;;;8.23;8.03;;;22.70;73.40;;;;;;5437573;26;20547;-65
2024/04/14 05:21:20;;;;;;;9.20;9.00;;;22.70;73.30;;;;;;5452280;26;21033;-66
2024/04/14 05:23:48;;;;;;;8.00;7.90;;;22.70;73.30;;;;;;5451543;26;20463;-65
2024/04/14 05:26:14;;;;;;;8.23;8.03;;;22.70;73.30;;;;;;5449275;26;20471;-65
2024/04/14 05:28:45;;;;;;;8.43;8.23;;;22.70;73.20;;;;;;5452173;26;20508;-65
2024/04/14 05:31:11;;;;;;;8.63;8.43;;;22.70;73.20;;;;;;5452685;26;20245;-66
2024/04/14 05:33:39;;;;;;;8.20;8.00;;;22.70;73.20;;;;;;5451905;26;20467;-66
2024/04/14 05:36:06;;;;;;;9.03;8.83;;;22.70;73.20;;;;;;5440797;26;20602;-67
2024/04/14 05:38:35;;;;;;;8.77;8.57;;;22.60;73.00;;;;;;5433524;26;20471;-66
2024/04/14 05:41:01;;;;;;;9.57;9.37;;;22.60;73.00;;;;;;5451806;26;20496;-67
2024/04/14 05:43:30;;;;;;;9.00;8.80;;;22.60;73.00;;;;;;5451158;26;20468;-67
2024/04/14 05:45:59;;;;;;;9.00;8.80;;;22.60;73.00;;;;;;5452082;26;20248;-66
2024/04/14 05:48:27;;;;;;;9.17;8.87;;;22.70;73.00;;;;;;5434327;26;20473;-67
2024/04/14 05:50:53;;;;;;;8.80;8.60;;;22.60;73.60;;;;;;5415689;26;20437;-67
2024/04/14 05:53:22;;;;;;;9.13;8.90;;;22.60;72.90;;;;;;5415224;26;20558;-67
2024/04/14 05:55:47;;;;;;;9.00;8.80;;;22.60;72.90;;;;;;5445684;26;20234;-67
2024/04/14 05:58:16;;;;;;;9.53;9.03;;;22.60;72.90;;;;;;5451714;26;20455;-67
2024/04/14 06:00:42;;;;;;;9.33;9.13;;;22.60;72.80;;;;;;5427239;26;20231;-66
2024/04/14 06:03:13;;;;;;;9.30;9.10;;;22.60;72.80;;;;;;5414777;26;20518;-67
2024/04/14 06:05:39;;;;;;;9.67;9.47;;;22.60;72.80;;;;;;5415578;26;20694;-66
2024/04/14 06:08:08;;;;;;;9.53;9.33;;;22.60;72.80;;;;;;5415358;26;20448;-67
2024/04/14 06:10:34;;;;;;;9.60;9.30;;;22.60;72.80;;;;;;5415459;26;20219;-67
2024/04/14 06:13:02;;;;;;;9.13;8.93;;;22.60;72.80;;;;;;5422959;26;21431;-68
2024/04/14 06:15:28;;;;;;;9.40;9.10;;;22.60;72.80;;;;;;5415553;26;20215;-68
2024/04/14 06:17:57;;;;;;;9.50;9.30;;;22.60;72.80;;;;;;5415329;26;20900;-68
2024/04/14 06:20:25;;;;;;;10.13;9.83;;;22.60;73.50;;;;;;5418271;26;20542;-68
2024/04/14 06:22:54;;;;;;;8.90;8.70;;;22.60;72.80;;;;;;5418001;26;20586;-68
2024/04/14 06:25:20;;;;;;;8.50;8.30;;;22.60;72.80;;;;;;5442984;26;20892;-68
2024/04/14 06:27:49;;;;;;;9.97;9.77;;;22.60;72.80;;;;;;5454549;26;20854;-68
2024/04/14 06:30:15;;;;;;;9.43;9.23;;;22.60;72.70;;;;;;5454712;26;20511;-67
2024/04/14 06:32:44;;;;;;;10.07;9.83;;;22.60;72.70;;;;;;5453404;26;20519;-68
2024/04/14 06:35:09;;;;;;;10.50;10.20;;;22.60;72.70;;;;;;5454502;26;20497;-67
2024/04/14 06:37:40;;;;;;;9.50;9.30;;;22.60;72.70;;;;;;5425879;26;20469;-68
2024/04/14 06:40:08;;;;;;;10.03;9.83;;;22.60;72.70;;;;;;5418744;26;20214;-68
2024/04/14 06:42:37;;;;;;;10.00;9.80;;;22.60;72.70;;;;;;5417851;26;20859;-68
2024/04/14 06:45:04;;;;;;;9.80;9.60;;;22.60;72.70;;;;;;5418639;26;20506;-68
2024/04/14 06:47:33;;;;;;;9.80;9.60;;;22.60;72.70;;;;;;5418327;26;20840;-68
2024/04/14 06:49:59;;;;;;;9.83;9.63;;;22.60;72.60;;;;;;5447531;26;20463;-68
2024/04/14 06:52:28;;;;;;;9.90;9.70;;;22.50;72.60;;;;;;5453450;26;20467;-67
2024/04/14 06:54:56;;;;;;;9.77;9.57;;;22.50;72.60;;;;;;5454329;26;20702;-68
2024/04/14 06:57:25;;;;;;;9.73;9.43;;;22.50;72.50;;;;;;5438869;26;20667;-68
2024/04/14 06:59:50;;;;;;;9.33;9.13;;;22.60;72.60;;;;;;5418264;26;20453;-68
2024/04/14 07:02:19;;;;;;;10.17;9.77;;;22.50;72.50;;;;;;5417497;26;20567;-67
2024/04/14 07:04:45;;;;;;;9.83;9.63;;;22.60;72.60;;;;;;5418150;26;20215;-67
2024/04/14 07:07:14;;;;;;;10.63;10.37;;;22.50;72.40;;;;;;5429863;26;20522;-68
2024/04/14 07:09:41;;;;;;;9.80;9.50;;;22.50;72.40;;;;;;5433844;26;20465;-68
2024/04/14 07:12:13;;;;;;;10.40;10.20;;;22.50;72.40;;;;;;5417147;26;20885;-68
2024/04/14 07:14:38;;;;;;;9.70;9.50;;;22.50;73.10;;;;;;5418067;26;20562;-68
2024/04/14 07:17:07;;;;;;;9.70;9.50;;;22.50;72.30;;;;;;5417851;26;20453;-68
2024/04/14 07:19:32;;;;;;;9.77;9.47;;;22.50;72.30;;;;;;5420083;26;20710;-68
2024/04/14 07:22:01;;;;;;;9.80;9.60;;;22.50;72.30;;;;;;5426153;26;20460;-68
2024/04/14 07:24:27;;;;;;;10.07;9.77;;;22.50;72.20;;;;;;5453735;26;20731;-68
2024/04/14 07:26:55;;;;;;;9.60;9.40;;;22.50;72.20;;;;;;5453830;26;20463;-67
2024/04/14 07:29:25;;;;;;;9.70;9.50;;;22.50;72.20;;;;;;5437483;26;20805;-68
2024/04/14 07:31:53;;;;;;;10.10;9.90;;;22.50;72.20;;;;;;5416624;26;20465;-68
2024/04/14 07:34:19;;;;;;;10.10;9.90;;;22.50;72.20;;;;;;5417719;26;20448;-68
2024/04/14 07:36:47;;;;;;;10.10;9.90;;;22.50;72.20;;;;;;5417576;26;20564;-68
2024/04/14 07:39:14;;;;;;;10.10;9.80;;;22.50;72.20;;;;;;5417522;26;20624;-67
2024/04/14 07:41:43;;;;;;;11.37;11.07;;;22.50;72.10;;;;;;5436277;26;20519;-68
2024/04/14 07:44:08;;;;;;;10.13;9.93;;;22.50;72.20;;;;;;5453410;26;20455;-68
2024/04/14 07:46:42;;;;;;;10.33;10.03;;;22.50;72.10;;;;;;5453368;26;20531;-68
2024/04/14 07:49:09;;;;;;;9.70;9.50;;;22.50;72.00;;;;;;5450567;26;20294;-68
2024/04/14 07:51:37;;;;;;;10.13;9.93;;;22.50;72.00;;;;;;5452680;26;20448;-68
2024/04/14 07:54:04;;;;;;;9.47;9.27;;;22.50;72.00;;;;;;5453236;26;20945;-68
2024/04/14 07:56:32;;;;;;;9.50;9.30;;;22.50;72.00;;;;;;5453332;26;20835;-68
2024/04/14 07:58:58;;;;;;;9.50;9.30;;;22.50;71.90;;;;;;5450430;26;20464;-68
2024/04/14 08:01:27;;;;;;;8.70;8.50;;;22.50;71.90;;;;;;5453014;26;21146;-68
2024/04/14 08:03:55;;;;;;;10.20;10.00;;;22.50;71.90;;;;;;5452395;26;20272;-68
2024/04/14 08:06:24;;;;;;;9.93;9.73;;;22.50;71.90;;;;;;5453081;26;20459;-68
2024/04/14 08:08:49;;;;;;;10.30;10.10;;;22.50;71.80;;;;;;5439806;26;20518;-68
2024/04/14 08:11:18;;;;;;;10.60;10.30;;;22.50;71.80;;;;;;5422364;26;20476;-68
2024/04/14 08:13:44;;;;;;;9.87;9.67;;;22.50;71.80;;;;;;5416409;26;20235;-68
2024/04/14 08:16:12;;;;;;;9.07;8.87;;;22.50;71.80;;;;;;5416926;26;20860;-68
2024/04/14 08:18:39;;;;;;;9.10;8.90;;;22.50;71.80;;;;;;5416754;26;20257;-68
2024/04/14 08:21:10;;;;;;;9.97;9.67;;;22.50;71.80;;;;;;5419327;26;21059;-68
2024/04/14 08:23:36;;;;;;;9.27;9.00;;;22.50;71.80;;;;;;5416282;26;20460;-65
2024/04/14 08:26:05;;;;;;;9.83;9.53;;;22.50;71.80;;;;;;5416599;26;20453;-66
2024/04/14 08:28:31;;;;;;;9.20;9.00;;;22.50;71.80;;;;;;5416640;26;20456;-67
2024/04/14 08:30:59;;;;;;;9.83;9.53;;;22.50;71.70;;;;;;5416529;26;20468;-66
2024/04/14 08:33:25;;;;;;;9.97;9.67;;;22.50;71.80;;;;;;5442845;26;20467;-66
2024/04/14 08:35:54;;;;;;;9.30;9.10;;;22.50;71.70;;;;;;5452558;26;20511;-66
2024/04/14 08:38:23;;;;;;;10.03;9.83;;;22.50;71.70;;;;;;5452583;26;20252;-67
2024/04/14 08:40:56;;;;;;;10.40;10.10;;;22.40;71.70;;;;;;5452304;26;20602;-67
2024/04/14 08:43:22;;;;;;;9.30;9.07;;;22.40;71.60;;;;;;5451077;26;20505;-66
2024/04/14 08:45:52;;;;;;;10.30;10.00;;;22.40;71.70;;;;;;5418011;26;20476;-67
2024/04/14 08:48:19;;;;;;;10.03;9.83;;;22.40;71.60;;;;;;5416513;26;20505;-66
2024/04/14 08:50:50;;;;;;;9.70;9.50;;;22.50;71.60;;;;;;5416655;26;20496;-66
2024/04/14 08:53:18;;;;;;;9.33;9.13;;;22.50;71.60;;;;;;5415667;26;20460;-66
2024/04/14 08:55:50;;;;;;;10.40;10.10;;;22.40;71.40;;;;;;5420080;26;20449;-66
2024/04/14 08:58:18;;;;;;;9.30;9.10;;;22.40;71.40;;;;;;5426255;26;20461;-66
2024/04/14 09:00:47;;;;;;;9.20;9.00;;;22.40;71.50;;;;;;5416259;26;20499;-66
2024/04/14 09:03:13;;;;;;;9.30;9.10;;;22.40;71.50;;;;;;5415508;26;20465;-66
2024/04/14 09:05:45;;;;;;;9.90;9.70;;;22.40;71.50;;;;;;5416202;26;20501;-66
2024/04/14 09:08:11;;;;;;;10.37;10.07;;;22.40;71.50;;;;;;5422192;26;20471;-66
2024/04/14 09:10:39;;;;;;;10.53;10.23;;;22.40;71.50;;;;;;5452143;26;20568;-66
2024/04/14 09:13:08;;;;;;;10.60;10.30;;;22.40;71.60;;;;;;5451383;26;20226;-67
2024/04/14 09:15:42;;;;;;;10.10;9.90;;;22.40;71.50;;;;;;5451963;26;20456;-67
2024/04/14 09:18:09;;;;;;;10.00;9.80;;;22.40;71.60;;;;;;5452121;26;20547;-67
2024/04/14 09:20:37;;;;;;;10.03;9.80;;;22.40;71.50;;;;;;5435491;26;20987;-68
2024/04/14 09:23:04;;;;;;;10.50;10.30;;;22.40;71.50;;;;;;5415691;26;20468;-68
2024/04/14 09:25:35;;;;;;;10.10;9.90;;;22.40;71.50;;;;;;5416431;26;20457;-68
2024/04/14 09:28:01;;;;;;;10.20;9.90;;;22.40;71.40;;;;;;5416455;26;20456;-68
2024/04/14 09:30:32;;;;;;;10.33;10.13;;;22.40;71.50;;;;;;5416876;26;20548;-68
2024/04/14 09:32:58;;;;;;;10.00;9.80;;;22.40;71.40;;;;;;5417655;26;20531;-67
2024/04/14 09:35:27;;;;;;;10.00;9.70;;;22.40;71.30;;;;;;5416904;26;20796;-67
2024/04/14 09:37:53;;;;;;;10.00;9.70;;;22.30;71.40;;;;;;5416009;26;20698;-68
2024/04/14 09:40:24;;;;;;;10.30;10.10;;;22.40;71.50;;;;;;5415579;26;20472;-67
2024/04/14 09:42:55;;;;;;;9.67;9.47;;;22.30;71.40;;;;;;5415447;26;20261;-68
2024/04/14 09:45:26;;;;;;;10.30;10.10;;;22.40;71.50;;;;;;5415866;26;21053;-67
2024/04/14 09:47:56;;;;;;;9.97;9.67;;;22.40;71.50;;;;;;5416007;26;20497;-68
2024/04/14 09:50:25;;;;;;;9.37;9.17;;;22.40;71.40;;;;;;5430722;26;20468;-68
2024/04/14 09:52:52;;;;;;;10.17;9.70;;;22.40;71.30;;;;;;5450945;26;20564;-68
2024/04/14 09:55:21;;;;;;;9.70;9.50;;;22.40;71.30;;;;;;5451766;26;20468;-67
2024/04/14 09:57:48;;;;;;;9.93;9.73;;;22.40;71.30;;;;;;5449892;26;20501;-68
2024/04/14 10:00:18;;;;;;;10.10;9.90;;;22.40;71.30;;;;;;5415647;26;20524;-67
2024/04/14 10:02:49;;;;;;;10.40;10.10;;;22.40;71.30;;;;;;5414966;26;20525;-67
2024/04/14 10:05:21;;;;;;;9.57;9.23;;;22.40;71.20;;;;;;5415562;26;20511;-68
2024/04/14 10:07:48;;;;;;;9.33;9.13;;;22.40;71.20;;;;;;5440957;26;20912;-68
2024/04/14 10:10:19;;;;;;;9.43;9.23;;;22.40;71.20;;;;;;5451770;26;20495;-67
2024/04/14 10:12:45;;;;;;;9.97;9.67;;;22.40;71.10;;;;;;5451101;26;20942;-68
2024/04/14 10:15:16;;;;;;;9.43;9.23;;;22.40;71.10;;;;;;5451607;26;20519;-68
2024/04/14 10:17:43;;;;;;;9.70;9.37;;;22.40;71.00;;;;;;5427374;26;20468;-67
2024/04/14 10:20:16;;;;;;;9.40;9.20;;;22.40;71.00;;;;;;5415629;26;20460;-67
2024/04/14 10:22:45;;;;;;;9.97;9.70;;;22.40;71.10;;;;;;5414576;26;20857;-67
2024/04/14 10:25:22;;;;;;;10.10;9.80;;;22.40;71.00;;;;;;5415240;26;20487;-66
2024/04/14 10:27:48;;;;;;;9.60;9.40;;;22.40;70.90;;;;;;5415103;26;20533;-67
2024/04/14 10:30:22;;;;;;;10.47;10.27;;;22.40;70.90;;;;;;5427774;26;20471;-67
2024/04/14 10:32:48;;;;;;;10.13;9.93;;;22.40;70.90;;;;;;5469341;21;20273;-65
2024/04/14 10:35:17;;;;;;;10.30;10.00;;;22.40;70.80;;;;;;5494609;26;20478;-65
2024/04/14 10:37:55;;;;;;;10.70;10.50;;;22.40;70.80;;;;;;5487010;26;20462;-65
2024/04/14 10:40:24;;;;;;;10.83;10.43;;;22.40;70.70;;;;;;5486819;26;20461;-65
2024/04/14 10:42:52;;;;;;;10.00;9.80;;;22.40;70.70;;;;;;5483729;26;20514;-65
2024/04/14 10:45:25;;;;;;;10.83;10.53;;;22.40;70.70;;;;;;5450801;26;21052;-65
2024/04/14 10:47:53;;;;;;;10.60;10.30;;;22.40;70.60;;;;;;5450520;26;20551;-65
2024/04/14 10:50:19;;;;;;;9.73;9.53;;;22.40;70.70;;;;;;5450225;26;20467;-65
2024/04/14 10:52:47;;;;;;;10.03;9.83;;;22.40;70.70;;;;;;5449611;26;20471;-65
2024/04/14 10:55:16;;;;;;;10.63;10.33;;;22.40;70.60;;;;;;5453443;26;20230;-65
2024/04/14 10:57:44;;;;;;;9.97;9.77;;;22.40;70.60;;;;;;5450061;26;20510;-65
2024/04/14 11:00:11;;;;;;;10.20;10.00;;;22.40;70.50;;;;;;5450156;26;20787;-65
2024/04/14 11:02:40;;;;;;;10.50;10.20;;;22.40;70.50;;;;;;5449617;26;20522;-65
2024/04/14 11:05:06;;;;;;;11.67;11.37;;;22.40;70.40;;;;;;5451727;26;20455;-65
2024/04/14 11:07:35;;;;;;;11.80;11.40;;;22.40;70.40;;;;;;5457674;26;20526;-65
2024/04/14 11:10:02;;;;;;;10.40;10.20;;;22.40;70.40;;;;;;5453671;26;20460;-66
2024/04/14 11:12:33;;;;;;;11.10;10.80;;;22.40;70.40;;;;;;5452992;26;21040;-64
2024/04/14 11:15:01;;;;;;;10.13;9.83;;;22.40;70.40;;;;;;5454113;26;20585;-65
2024/04/14 11:17:30;;;;;;;10.90;10.60;;;22.40;70.30;;;;;;5453876;26;20470;-66
2024/04/14 11:19:57;;;;;;;10.30;10.10;;;22.40;70.30;;;;;;5453521;26;20456;-65
2024/04/14 11:22:25;;;;;;;10.20;9.90;;;22.50;70.30;;;;;;5452853;26;20527;-65
2024/04/14 11:24:51;;;;;;;9.97;9.70;;;22.40;70.20;;;;;;5453990;26;20510;-65
2024/04/14 11:27:20;;;;;;;10.50;10.30;;;22.40;70.20;;;;;;5453370;26;20858;-65
2024/04/14 11:29:49;;;;;;;10.33;10.03;;;22.40;70.20;;;;;;5453385;26;20514;-64
2024/04/14 11:32:33;;;;;;;10.43;10.23;;;22.40;70.10;;;;;;5452595;26;20467;-64
2024/04/14 11:35:00;;;;;;;10.30;10.10;;;22.50;70.30;;;;;;5455016;26;20523;-64
2024/04/14 11:37:30;;;;;;;11.10;10.80;;;22.50;70.30;;;;;;5453242;26;20513;-65
2024/04/14 11:39:57;;;;;;;10.40;10.13;;;22.50;70.20;;;;;;5453304;26;21174;-66
2024/04/14 11:42:26;;;;;;;11.93;11.27;;;22.50;70.30;;;;;;5452627;26;20519;-66
2024/04/14 11:44:55;;;;;;;11.93;11.43;;;22.50;65.80;;;;;;5454661;26;20467;-66
2024/04/14 11:47:25;;;;;;;12.30;11.60;;;22.60;63.20;;;;;;5452550;26;20817;-65
2024/04/14 11:49:51;;;;;;;11.83;10.33;;;22.60;61.50;;;;;;5453290;26;20850;-66
2024/04/14 11:52:20;;;;;;;10.53;10.13;;;22.60;61.40;;;;;;5452609;26;20467;-65
2024/04/14 11:54:48;;;;;;;10.63;10.23;;;22.70;61.50;;;;;;5456456;26;20242;-65
2024/04/14 11:57:17;;;;;;;10.37;10.07;;;22.70;60.00;;;;;;5459636;26;20467;-65
2024/04/14 11:59:42;;;;;;;10.93;10.53;;;22.80;59.40;;;;;;5438307;26;20833;-66
2024/04/14 12:02:13;;;;;;;10.77;9.93;;;22.80;58.50;;;;;;5452223;26;20467;-66
2024/04/14 12:04:39;;;;;;;10.97;10.57;;;22.80;58.80;;;;;;5454543;26;20234;-65
2024/04/14 12:07:08;;;;;;;11.20;10.60;;;22.80;58.20;;;;;;5452709;26;21042;-65
2024/04/14 12:09:33;;;;;;;10.07;9.60;;;22.80;57.90;;;;;;5452213;26;20226;-65
2024/04/14 12:12:02;;;;;;;10.10;9.80;;;22.90;58.00;;;;;;5452012;26;20518;-66
2024/04/14 12:14:28;;;;;;;10.70;10.30;;;22.90;57.70;;;;;;5459901;26;20597;-66
2024/04/14 12:16:57;;;;;;;11.00;10.40;;;22.90;57.30;;;;;;5451571;26;20466;-65
2024/04/14 12:19:25;;;;;;;10.83;10.43;;;23.00;57.20;;;;;;5452512;26;20225;-68
2024/04/14 12:21:54;;;;;;;11.10;10.60;;;23.00;57.80;;;;;;5451819;26;20542;-67
2024/04/14 12:24:20;;;;;;;10.80;10.50;;;23.00;57.40;;;;;;5454521;26;21080;-65
2024/04/14 12:26:48;;;;;;;9.80;9.40;;;23.00;56.50;;;;;;5452661;26;20524;-64
2024/04/14 12:29:14;;;;;;;11.10;10.70;;;23.00;56.00;;;;;;5452404;26;20592;-66
2024/04/14 12:31:42;;;;;;;10.50;10.10;;;23.00;55.60;;;;;;5451605;26;20471;-66
2024/04/14 12:34:09;;;;;;;9.77;9.47;;;23.00;55.80;;;;;;5454351;26;20646;-65
2024/04/14 12:36:40;;;;;;;10.10;9.80;;;23.00;54.90;;;;;;5452375;26;20520;-67
2024/04/14 12:39:06;;;;;;;19.67;18.87;;;23.10;54.80;;;;;;5452349;26;20467;-66
2024/04/14 12:41:35;;;;;;;19.73;19.03;;;23.20;56.40;;;;;;5451695;26;20590;-67
2024/04/14 12:44:01;;;;;;;20.05;19.25;;;23.20;55.30;;;;;;5454200;26;20381;-66